Time;durP1;ratioP1;P1;durP2;ratioP2;P2;SDS_P1;SDS_P2;PMS_P1;PMS_P2;Temp;Humidity;BMP_temperature;BMP_pressure;BME280_temperature;BME280_humidity;BME280_pressure;Samples;Min_cycle;Max_cycle;Signal;HPM_P1;HPM_P2
2021/06/12 00:01:53;;;;;;;7.15;6.45;;;21.40;67.60;;;;;;5081482;28;20180;-78
2021/06/12 00:04:19;;;;;;;6.93;6.22;;;21.50;67.60;;;;;;5081508;28;20188;-78
2021/06/12 00:06:46;;;;;;;6.90;6.20;;;21.50;67.60;;;;;;5100530;28;20528;-76
2021/06/12 00:09:12;;;;;;;6.78;6.13;;;21.40;67.60;;;;;;5100313;28;20156;-77
2021/06/12 00:11:42;;;;;;;6.93;6.22;;;21.40;67.70;;;;;;5099790;28;20164;-80
2021/06/12 00:14:08;;;;;;;7.18;6.47;;;21.40;67.80;;;;;;5080822;28;20180;-79
2021/06/12 00:16:33;;;;;;;7.07;6.38;;;21.40;68.50;;;;;;5099934;28;20681;-79
2021/06/12 00:18:59;;;;;;;6.60;6.00;;;21.40;67.80;;;;;;5100211;28;20149;-77
2021/06/12 00:21:30;;;;;;;7.18;6.47;;;21.40;67.60;;;;;;5100125;28;20171;-80
2021/06/12 00:23:56;;;;;;;7.38;6.68;;;21.40;67.70;;;;;;5080866;28;20207;-80
2021/06/12 00:26:22;;;;;;;7.40;6.70;;;21.40;67.80;;;;;;5099658;28;20187;-77
2021/06/12 00:28:49;;;;;;;6.70;6.10;;;21.40;67.80;;;;;;5100506;28;20544;-78
2021/06/12 00:31:15;;;;;;;7.35;6.57;;;21.40;67.80;;;;;;5099544;28;20157;-79
2021/06/12 00:33:43;;;;;;;7.18;6.47;;;21.40;67.80;;;;;;5099702;28;20182;-80
2021/06/12 00:36:11;;;;;;;6.78;6.18;;;21.40;67.80;;;;;;5080181;28;20639;-77
2021/06/12 00:38:39;;;;;;;7.68;6.88;;;21.40;67.80;;;;;;5080121;28;20212;-77
2021/06/12 00:41:08;;;;;;;7.15;6.45;;;21.40;67.80;;;;;;5063637;28;20180;-77
2021/06/12 00:43:41;;;;;;;7.18;6.47;;;21.40;67.80;;;;;;5080829;28;20723;-78
2021/06/12 00:46:07;;;;;;;6.70;6.10;;;21.40;67.80;;;;;;5063537;28;20213;-78
2021/06/12 00:48:35;;;;;;;6.75;6.07;;;21.40;67.80;;;;;;5099181;28;20157;-79
2021/06/12 00:51:02;;;;;;;7.18;6.47;;;21.40;67.80;;;;;;5079903;28;20214;-78
2021/06/12 00:53:47;;;;;;;7.22;6.53;;;21.40;67.80;;;;;;5063805;28;20239;-78
2021/06/12 00:56:18;;;;;;;7.45;6.72;;;21.40;67.80;;;;;;5082878;28;20185;-77
2021/06/12 00:58:45;;;;;;;6.70;6.10;;;21.40;67.90;;;;;;5063558;28;20212;-78
2021/06/12 01:01:13;;;;;;;7.07;6.38;;;21.30;67.70;;;;;;5080234;28;20185;-76
2021/06/12 01:03:45;;;;;;;6.97;6.28;;;21.30;67.80;;;;;;5063896;28;20181;-80
2021/06/12 01:06:13;;;;;;;7.35;6.65;;;21.40;68.70;;;;;;5063765;28;20179;-78
2021/06/12 01:08:41;;;;;;;7.22;6.53;;;21.30;67.90;;;;;;5063134;28;20184;-76
2021/06/12 01:11:09;;;;;;;7.15;6.45;;;21.30;67.90;;;;;;5063448;28;20180;-80
2021/06/12 01:13:57;;;;;;;7.05;6.38;;;21.30;67.90;;;;;;5079946;28;20181;-79
2021/06/12 01:17:02;;;;;;;6.75;6.15;;;21.30;67.90;;;;;;5096545;28;20185;-76
2021/06/12 01:20:02;;;;;;;7.28;6.57;;;21.40;67.90;;;;;;5097987;28;20165;-80
2021/06/12 01:22:55;;;;;;;7.53;6.82;;;21.40;67.90;;;;;;5097189;28;20531;-78
2021/06/12 01:25:28;;;;;;;7.28;6.57;;;21.30;68.00;;;;;;5082812;28;20180;-79
2021/06/12 01:28:22;;;;;;;7.47;6.78;;;21.30;67.90;;;;;;5064069;28;20180;-78
2021/06/12 01:30:52;;;;;;;7.10;6.40;;;21.40;67.90;;;;;;5082168;28;20177;-77
2021/06/12 01:33:19;;;;;;;7.13;6.43;;;21.30;67.90;;;;;;5113675;28;20354;-78
2021/06/12 01:35:50;;;;;;;7.85;7.05;;;21.30;68.00;;;;;;5062432;28;20228;-80
2021/06/12 01:38:24;;;;;;;8.10;7.30;;;21.30;68.00;;;;;;5063203;28;20217;-80
2021/06/12 01:40:51;;;;;;;7.32;6.63;;;21.30;68.00;;;;;;5079967;28;20204;-78
2021/06/12 01:43:21;;;;;;;7.03;6.32;;;21.30;67.90;;;;;;5079355;28;20187;-82
2021/06/12 01:45:51;;;;;;;7.47;6.70;;;21.30;68.00;;;;;;5062958;28;20180;-79
2021/06/12 01:48:18;;;;;;;8.10;6.90;;;21.30;68.00;;;;;;5079288;28;20187;-78
2021/06/12 01:50:45;;;;;;;7.80;7.00;;;21.30;68.10;;;;;;5079655;28;20177;-77
2021/06/12 01:53:19;;;;;;;7.32;6.63;;;21.30;68.00;;;;;;5045828;28;20216;-80
2021/06/12 01:55:47;;;;;;;7.18;6.47;;;21.30;68.00;;;;;;5080069;28;20191;-77
2021/06/12 01:58:20;;;;;;;7.60;6.72;;;21.30;68.10;;;;;;5062904;28;20220;-81
2021/06/12 02:00:51;;;;;;;7.50;6.80;;;21.30;68.00;;;;;;5062784;28;20173;-78
2021/06/12 02:03:18;;;;;;;7.50;6.80;;;21.30;68.10;;;;;;5079359;28;20188;-78
2021/06/12 02:05:45;;;;;;;7.40;6.70;;;21.30;68.20;;;;;;5062468;28;20180;-78
2021/06/12 02:08:16;;;;;;;7.22;6.53;;;21.30;68.20;;;;;;5079170;28;20196;-81
2021/06/12 02:10:48;;;;;;;8.27;7.47;;;21.30;68.20;;;;;;5062743;28;20654;-79
2021/06/12 02:13:20;;;;;;;7.28;6.57;;;21.20;68.10;;;;;;5079290;28;20185;-79
2021/06/12 02:15:50;;;;;;;7.82;7.03;;;21.20;68.10;;;;;;5079718;28;20209;-80
2021/06/12 02:18:16;;;;;;;7.32;6.63;;;21.30;68.10;;;;;;5079435;28;20212;-78
2021/06/12 02:20:42;;;;;;;7.40;6.70;;;21.20;68.20;;;;;;5079291;28;20224;-81
2021/06/12 02:23:09;;;;;;;7.10;6.40;;;21.30;68.30;;;;;;5099085;28;20169;-78
2021/06/12 02:25:36;;;;;;;7.32;6.63;;;21.30;68.30;;;;;;5062564;28;20188;-80
2021/06/12 02:28:05;;;;;;;7.70;7.00;;;21.30;68.30;;;;;;5079959;28;20256;-78
2021/06/12 02:30:32;;;;;;;7.30;6.57;;;21.30;68.40;;;;;;5097120;28;20240;-79
2021/06/12 02:33:00;;;;;;;7.45;6.72;;;21.30;68.40;;;;;;5098804;28;20165;-80
2021/06/12 02:35:30;;;;;;;7.45;6.75;;;21.30;68.40;;;;;;5101213;28;20218;-82
2021/06/12 02:37:57;;;;;;;8.35;7.50;;;21.30;68.30;;;;;;5082491;28;20289;-80
2021/06/12 02:40:24;;;;;;;7.50;6.80;;;21.30;68.40;;;;;;5102247;28;20608;-78
2021/06/12 02:42:54;;;;;;;7.40;6.70;;;21.30;68.40;;;;;;5081927;28;20192;-78
2021/06/12 02:45:20;;;;;;;7.72;7.03;;;21.20;68.30;;;;;;5082562;28;20237;-78
2021/06/12 02:47:48;;;;;;;7.60;6.88;;;21.20;68.40;;;;;;5102228;28;20157;-81
2021/06/12 02:50:17;;;;;;;7.50;6.80;;;21.20;68.30;;;;;;5101923;28;20175;-79
2021/06/12 02:52:43;;;;;;;7.88;7.07;;;21.20;68.40;;;;;;5082113;28;20708;-78
2021/06/12 02:55:11;;;;;;;7.00;6.30;;;21.20;68.50;;;;;;5101476;28;20184;-81
2021/06/12 02:57:43;;;;;;;7.85;7.05;;;21.30;68.50;;;;;;5065270;28;20250;-78
2021/06/12 03:00:09;;;;;;;7.55;6.82;;;21.20;68.30;;;;;;5082343;28;20643;-80
2021/06/12 03:02:39;;;;;;;7.20;6.50;;;21.20;68.30;;;;;;5116919;28;20167;-78
2021/06/12 03:05:12;;;;;;;7.63;6.82;;;21.20;68.50;;;;;;5065249;28;20172;-78
2021/06/12 03:07:39;;;;;;;7.68;6.78;;;21.20;68.50;;;;;;5083053;28;20635;-78
2021/06/12 03:10:07;;;;;;;7.30;6.60;;;21.20;68.40;;;;;;5065507;28;20210;-80
2021/06/12 03:12:34;;;;;;;7.20;6.50;;;21.20;68.50;;;;;;5082169;28;20214;-79
2021/06/12 03:15:02;;;;;;;7.90;7.10;;;21.20;68.60;;;;;;5081661;28;20268;-78
2021/06/12 03:17:33;;;;;;;7.93;7.13;;;21.20;68.50;;;;;;5081392;28;20269;-79
2021/06/12 03:19:58;;;;;;;7.85;7.05;;;21.20;68.50;;;;;;5081934;28;20272;-79
2021/06/12 03:22:25;;;;;;;7.35;6.65;;;21.20;68.60;;;;;;5101348;28;20176;-78
2021/06/12 03:24:50;;;;;;;7.72;7.00;;;21.20;68.60;;;;;;5116534;28;20164;-79
2021/06/12 03:27:17;;;;;;;7.53;6.75;;;21.20;68.60;;;;;;5100703;28;20157;-79
2021/06/12 03:29:45;;;;;;;7.32;6.63;;;21.20;68.60;;;;;;5064872;28;20268;-79
2021/06/12 03:32:12;;;;;;;7.18;6.50;;;21.20;68.60;;;;;;5081322;28;20188;-79
2021/06/12 03:34:39;;;;;;;7.15;6.45;;;21.10;68.60;;;;;;5064506;28;20813;-79
2021/06/12 03:37:07;;;;;;;8.15;7.35;;;21.20;68.70;;;;;;5064893;28;20212;-78
2021/06/12 03:39:34;;;;;;;8.10;7.30;;;21.10;68.70;;;;;;5064925;28;20241;-80
2021/06/12 03:42:01;;;;;;;8.23;7.43;;;21.20;68.70;;;;;;5080829;28;20182;-78
2021/06/12 03:44:28;;;;;;;7.60;6.88;;;21.20;68.70;;;;;;5081051;28;20176;-78
2021/06/12 03:46:55;;;;;;;7.97;7.18;;;21.10;68.50;;;;;;5079765;28;20180;-80
2021/06/12 03:49:21;;;;;;;7.95;7.15;;;21.20;68.70;;;;;;5064161;28;20620;-82
2021/06/12 03:51:47;;;;;;;7.63;6.93;;;21.20;68.80;;;;;;5063639;28;20183;-79
2021/06/12 03:54:18;;;;;;;7.68;6.97;;;21.10;68.70;;;;;;5099693;28;20173;-80
2021/06/12 03:56:44;;;;;;;7.75;6.95;;;21.10;68.70;;;;;;5063985;28;20187;-78
2021/06/12 03:59:12;;;;;;;8.15;7.32;;;21.20;68.80;;;;;;5081266;28;20177;-78
2021/06/12 04:01:42;;;;;;;8.00;7.20;;;21.10;68.80;;;;;;5080656;28;20655;-78
2021/06/12 04:04:11;;;;;;;7.93;7.13;;;21.10;68.80;;;;;;5081321;28;20231;-78
2021/06/12 04:06:39;;;;;;;7.45;6.75;;;21.10;68.90;;;;;;5063714;28;20215;-78
2021/06/12 04:09:07;;;;;;;7.22;6.57;;;21.10;68.90;;;;;;5063850;28;20181;-78
2021/06/12 04:11:35;;;;;;;7.93;7.10;;;21.10;68.70;;;;;;5080778;28;20185;-78
2021/06/12 04:14:04;;;;;;;7.95;7.15;;;21.20;68.70;;;;;;5080841;28;20592;-78
2021/06/12 04:16:32;;;;;;;8.05;7.25;;;21.10;68.80;;;;;;5081150;28;20224;-79
2021/06/12 04:19:01;;;;;;;8.05;7.25;;;21.10;68.90;;;;;;5080434;28;20252;-79
2021/06/12 04:21:28;;;;;;;7.22;6.53;;;21.10;68.90;;;;;;5080065;28;20181;-78
2021/06/12 04:23:56;;;;;;;7.70;6.90;;;21.10;68.90;;;;;;5063678;28;20185;-77
2021/06/12 04:26:24;;;;;;;7.50;6.80;;;21.10;68.90;;;;;;5079899;28;20195;-79
2021/06/12 04:28:52;;;;;;;7.72;7.03;;;21.10;68.90;;;;;;5080370;28;20187;-79
2021/06/12 04:31:21;;;;;;;7.72;7.03;;;21.10;68.70;;;;;;5063697;28;20212;-79
2021/06/12 04:33:49;;;;;;;7.43;6.72;;;21.10;68.80;;;;;;5063473;28;20241;-78
2021/06/12 04:36:19;;;;;;;8.02;7.22;;;21.10;68.80;;;;;;5062170;28;20180;-81
2021/06/12 04:38:46;;;;;;;7.78;6.97;;;21.10;68.90;;;;;;5078812;28;20216;-81
2021/06/12 04:41:13;;;;;;;7.85;6.90;;;21.20;68.90;;;;;;5079151;28;20219;-80
2021/06/12 04:43:40;;;;;;;7.72;6.93;;;21.10;68.90;;;;;;5062722;28;20181;-77
2021/06/12 04:46:10;;;;;;;7.93;7.13;;;21.10;69.10;;;;;;5062636;28;20537;-80
2021/06/12 04:48:37;;;;;;;8.35;7.30;;;21.10;69.00;;;;;;5062603;28;20191;-77
2021/06/12 04:51:07;;;;;;;7.90;7.13;;;21.10;69.10;;;;;;5079188;28;20301;-80
2021/06/12 04:53:33;;;;;;;7.95;7.15;;;21.00;69.10;;;;;;5061891;28;20228;-82
2021/06/12 04:56:01;;;;;;;8.02;7.20;;;21.00;69.10;;;;;;5062313;28;20193;-79
2021/06/12 04:58:29;;;;;;;7.97;7.28;;;21.00;69.10;;;;;;5078009;28;20270;-81
2021/06/12 05:00:57;;;;;;;7.72;7.03;;;21.10;69.10;;;;;;5062353;28;20187;-77
2021/06/12 05:03:24;;;;;;;7.78;7.03;;;21.00;69.10;;;;;;5078486;28;20184;-79
2021/06/12 05:05:54;;;;;;;7.93;7.13;;;21.00;69.10;;;;;;5077956;28;20195;-79
2021/06/12 05:08:24;;;;;;;7.60;6.90;;;21.10;69.10;;;;;;5062524;28;20181;-78
2021/06/12 05:10:53;;;;;;;7.50;6.80;;;21.10;69.00;;;;;;5079547;28;20176;-78
2021/06/12 05:13:22;;;;;;;7.88;7.07;;;21.10;69.10;;;;;;5061245;28;20522;-79
2021/06/12 05:15:51;;;;;;;7.53;6.82;;;21.10;69.10;;;;;;5077170;28;20717;-80
2021/06/12 05:18:28;;;;;;;7.72;6.93;;;21.10;69.00;;;;;;5077896;28;20667;-80
2021/06/12 05:20:57;;;;;;;7.35;6.65;;;21.10;69.00;;;;;;5079120;28;20173;-79
2021/06/12 05:23:26;;;;;;;7.82;7.03;;;21.10;69.00;;;;;;5077811;28;20181;-80
2021/06/12 05:25:56;;;;;;;7.90;7.10;;;21.10;69.00;;;;;;5044501;28;20237;-79
2021/06/12 05:28:24;;;;;;;7.50;6.80;;;21.10;69.00;;;;;;5077744;28;20233;-82
2021/06/12 05:30:53;;;;;;;8.10;7.30;;;21.10;69.00;;;;;;5077223;28;20231;-80
2021/06/12 05:33:22;;;;;;;8.82;7.07;;;21.10;69.00;;;;;;5076973;28;20188;-79
2021/06/12 05:35:51;;;;;;;8.23;7.43;;;21.00;69.10;;;;;;5060257;28;20392;-78
2021/06/12 05:38:19;;;;;;;7.80;7.00;;;21.10;69.20;;;;;;5060389;28;20204;-80
2021/06/12 05:40:51;;;;;;;8.00;7.20;;;21.00;69.10;;;;;;5076591;28;20259;-79
2021/06/12 05:43:19;;;;;;;7.78;7.07;;;21.00;69.10;;;;;;5060408;28;20207;-78
2021/06/12 05:45:48;;;;;;;8.00;7.20;;;21.10;69.30;;;;;;5060091;28;20183;-78
2021/06/12 05:48:16;;;;;;;7.72;6.93;;;21.00;69.20;;;;;;5076446;28;20548;-82
2021/06/12 05:50:46;;;;;;;7.90;7.20;;;21.00;69.20;;;;;;5076979;28;20185;-80
2021/06/12 05:53:13;;;;;;;7.45;6.75;;;21.00;69.20;;;;;;5076356;28;20224;-81
2021/06/12 05:55:41;;;;;;;7.65;6.90;;;21.00;69.30;;;;;;5095327;28;20180;-80
2021/06/12 05:58:09;;;;;;;7.45;6.75;;;21.00;69.20;;;;;;5059972;28;20220;-78
2021/06/12 06:00:37;;;;;;;8.85;7.20;;;21.00;69.20;;;;;;5076737;28;20230;-78
2021/06/12 06:03:04;;;;;;;7.72;6.93;;;21.00;69.30;;;;;;5076457;28;20250;-81
2021/06/12 06:05:32;;;;;;;8.05;7.25;;;21.00;69.20;;;;;;5059980;28;20177;-82
2021/06/12 06:07:59;;;;;;;8.15;7.35;;;21.00;69.20;;;;;;5076483;28;20212;-81
2021/06/12 06:10:27;;;;;;;7.53;6.82;;;21.00;69.20;;;;;;5079098;28;20192;-82
2021/06/12 06:12:54;;;;;;;7.50;6.80;;;21.00;69.20;;;;;;5080247;28;20192;-80
2021/06/12 06:15:22;;;;;;;8.40;7.60;;;21.00;69.20;;;;;;5080022;28;20188;-80
2021/06/12 06:17:49;;;;;;;8.23;7.43;;;21.00;69.20;;;;;;5079993;28;20211;-79
2021/06/12 06:20:16;;;;;;;8.00;7.20;;;21.00;69.20;;;;;;5079939;28;20211;-80
2021/06/12 06:22:44;;;;;;;8.02;7.20;;;21.00;69.20;;;;;;5079972;28;20180;-79
2021/06/12 06:25:12;;;;;;;8.15;7.18;;;21.00;69.20;;;;;;5079771;28;20255;-81
2021/06/12 06:27:43;;;;;;;8.13;7.32;;;21.00;69.10;;;;;;5078733;28;20184;-78
2021/06/12 06:30:10;;;;;;;7.90;7.10;;;21.10;69.10;;;;;;5078826;28;20188;-81
2021/06/12 06:32:38;;;;;;;7.30;6.60;;;21.00;69.20;;;;;;5061731;28;20192;-80
2021/06/12 06:35:05;;;;;;;7.90;7.10;;;21.00;69.00;;;;;;5078209;28;20189;-82
2021/06/12 06:37:33;;;;;;;8.07;7.28;;;21.00;69.10;;;;;;5061284;28;20204;-80
2021/06/12 06:39:58;;;;;;;7.60;6.65;;;21.00;69.10;;;;;;5078162;28;20259;-80
2021/06/12 06:42:25;;;;;;;7.40;6.70;;;21.00;69.00;;;;;;5095339;28;20181;-79
2021/06/12 06:44:52;;;;;;;7.43;6.72;;;21.00;69.10;;;;;;5077442;28;20180;-78
2021/06/12 06:47:19;;;;;;;7.20;6.50;;;21.00;69.00;;;;;;5060862;28;20181;-78
2021/06/12 06:49:46;;;;;;;7.65;6.93;;;21.10;69.00;;;;;;5077554;28;20234;-81
2021/06/12 06:52:12;;;;;;;7.63;6.82;;;21.10;68.60;;;;;;5078256;28;20269;-79
2021/06/12 06:54:38;;;;;;;7.60;6.80;;;21.10;68.40;;;;;;5096907;28;20157;-81
2021/06/12 06:57:08;;;;;;;7.85;7.05;;;21.10;68.50;;;;;;5060583;28;20214;-81
2021/06/12 06:59:36;;;;;;;7.28;6.57;;;21.10;68.50;;;;;;5061117;28;20661;-81
2021/06/12 07:02:02;;;;;;;7.80;7.10;;;21.20;68.40;;;;;;5077188;28;20188;-80
2021/06/12 07:04:27;;;;;;;8.00;7.20;;;21.10;68.40;;;;;;5095124;28;20156;-81
2021/06/12 07:06:55;;;;;;;8.40;6.88;;;21.10;68.60;;;;;;5097737;28;20168;-81
2021/06/12 07:09:23;;;;;;;7.93;7.13;;;21.10;69.40;;;;;;5078469;28;20177;-79
2021/06/12 07:11:51;;;;;;;7.15;6.40;;;21.10;68.70;;;;;;5078627;28;20184;-77
2021/06/12 07:14:18;;;;;;;8.38;6.82;;;21.10;68.50;;;;;;5079807;28;20249;-82
2021/06/12 07:16:46;;;;;;;6.85;6.25;;;21.10;68.60;;;;;;5081755;28;20635;-80
2021/06/12 07:19:11;;;;;;;8.15;7.30;;;21.20;68.50;;;;;;5079743;28;20246;-82
2021/06/12 07:21:38;;;;;;;7.75;7.05;;;21.20;68.50;;;;;;5096139;28;20549;-79
2021/06/12 07:24:06;;;;;;;8.13;7.32;;;21.10;68.40;;;;;;5080647;28;20541;-78
2021/06/12 07:26:32;;;;;;;8.02;7.22;;;21.10;68.50;;;;;;5098595;28;20157;-81
2021/06/12 07:29:00;;;;;;;7.38;6.68;;;21.20;68.60;;;;;;5097877;28;20431;-76
2021/06/12 07:31:25;;;;;;;7.43;6.40;;;21.10;68.60;;;;;;5063451;28;20181;-80
2021/06/12 07:33:52;;;;;;;7.85;6.85;;;21.10;68.60;;;;;;5097480;28;20149;-82
2021/06/12 07:36:24;;;;;;;7.88;6.65;;;21.10;68.50;;;;;;5045168;28;20255;-79
2021/06/12 07:38:51;;;;;;;7.22;6.53;;;21.10;68.60;;;;;;5078383;28;20222;-78
2021/06/12 07:41:18;;;;;;;8.63;6.90;;;21.10;68.60;;;;;;5093915;28;20180;-80
2021/06/12 07:43:45;;;;;;;8.07;7.15;;;21.10;68.70;;;;;;5060705;28;20187;-81
2021/06/12 07:46:17;;;;;;;7.70;6.75;;;21.20;68.60;;;;;;5061521;28;20184;-81
2021/06/12 07:48:44;;;;;;;7.88;7.10;;;21.10;68.40;;;;;;5078603;28;20187;-81
2021/06/12 07:51:10;;;;;;;7.82;6.97;;;21.10;68.60;;;;;;5095554;28;20256;-81
2021/06/12 07:53:36;;;;;;;7.65;6.55;;;21.10;68.70;;;;;;5097697;28;20209;-79
2021/06/12 07:56:03;;;;;;;7.30;6.60;;;21.20;68.50;;;;;;5097827;28;20172;-78
2021/06/12 07:58:29;;;;;;;8.32;6.55;;;21.20;68.30;;;;;;5096732;28;20352;-78
2021/06/12 08:01:00;;;;;;;8.13;6.90;;;21.30;68.30;;;;;;5094582;28;20142;-84
2021/06/12 08:03:28;;;;;;;7.60;6.80;;;21.30;68.00;;;;;;5076910;28;20203;-80
2021/06/12 08:05:54;;;;;;;8.18;6.90;;;21.40;67.80;;;;;;5095314;28;20155;-80
2021/06/12 08:08:20;;;;;;;8.48;6.90;;;21.30;67.60;;;;;;5095749;28;20176;-79
2021/06/12 08:10:46;;;;;;;8.05;7.25;;;21.40;67.50;;;;;;5096637;28;20161;-80
2021/06/12 08:13:12;;;;;;;8.20;6.80;;;21.40;67.50;;;;;;5095080;28;20168;-83
2021/06/12 08:15:40;;;;;;;8.05;7.25;;;21.30;67.70;;;;;;5095105;28;20260;-80
2021/06/12 08:18:06;;;;;;;7.95;7.15;;;21.30;67.90;;;;;;5095882;28;20188;-80
2021/06/12 08:20:32;;;;;;;7.63;6.82;;;21.30;67.80;;;;;;5095499;28;20236;-79
2021/06/12 08:23:02;;;;;;;7.70;6.90;;;21.20;68.00;;;;;;5096408;28;20228;-79
2021/06/12 08:25:28;;;;;;;8.48;7.28;;;21.20;68.20;;;;;;5079443;28;20720;-80
2021/06/12 08:27:54;;;;;;;8.18;7.25;;;21.30;67.90;;;;;;5100700;28;20167;-79
2021/06/12 08:30:21;;;;;;;8.13;7.00;;;21.30;67.60;;;;;;5096859;28;20160;-82
2021/06/12 08:32:46;;;;;;;7.93;7.13;;;21.30;67.40;;;;;;5095953;28;20161;-77
2021/06/12 08:35:16;;;;;;;7.90;7.10;;;21.30;67.70;;;;;;5095740;28;20210;-82
2021/06/12 08:37:42;;;;;;;8.15;7.35;;;21.30;67.70;;;;;;5077098;28;20680;-78
2021/06/12 08:40:09;;;;;;;7.78;7.00;;;21.20;67.60;;;;;;5098056;28;20153;-78
2021/06/12 08:42:39;;;;;;;8.82;7.38;;;21.20;68.10;;;;;;5100314;28;20515;-79
2021/06/12 08:45:06;;;;;;;8.40;7.30;;;21.20;68.00;;;;;;5081270;28;20651;-81
2021/06/12 08:47:35;;;;;;;8.18;7.32;;;21.20;68.40;;;;;;5099809;28;20168;-78
2021/06/12 08:50:04;;;;;;;8.00;7.20;;;21.10;67.60;;;;;;5099426;28;20161;-80
2021/06/12 08:52:30;;;;;;;8.15;6.82;;;21.20;67.90;;;;;;5099139;28;20575;-79
2021/06/12 08:54:59;;;;;;;8.50;7.10;;;21.20;67.70;;;;;;5099143;28;20160;-82
2021/06/12 08:57:30;;;;;;;7.30;6.60;;;21.20;67.70;;;;;;5080177;28;20648;-80
2021/06/12 09:00:00;;;;;;;8.50;7.38;;;21.20;67.40;;;;;;5079114;28;20268;-80
2021/06/12 09:02:49;;;;;;;8.13;7.32;;;21.30;67.80;;;;;;5080533;28;20271;-80
2021/06/12 09:05:17;;;;;;;7.72;6.93;;;21.30;67.20;;;;;;5047613;28;20180;-82
2021/06/12 09:07:47;;;;;;;8.20;7.25;;;21.30;67.60;;;;;;5062185;28;20242;-78
2021/06/12 09:10:23;;;;;;;8.10;7.30;;;21.30;67.70;;;;;;5076645;28;20221;-79
2021/06/12 09:12:49;;;;;;;7.55;6.55;;;21.30;68.00;;;;;;5097131;28;20175;-79
2021/06/12 09:15:17;;;;;;;7.93;7.13;;;21.20;67.70;;;;;;5095719;28;20169;-77
2021/06/12 09:17:46;;;;;;;8.05;7.10;;;21.30;68.00;;;;;;5095206;28;20192;-81
2021/06/12 09:20:16;;;;;;;7.43;6.72;;;21.20;68.30;;;;;;5097050;28;20213;-79
2021/06/12 09:22:42;;;;;;;8.25;7.07;;;21.30;67.90;;;;;;5095919;28;20157;-80
2021/06/12 09:25:08;;;;;;;7.13;6.43;;;21.30;67.70;;;;;;5097602;28;20156;-77
2021/06/12 09:27:35;;;;;;;9.40;7.30;;;21.20;67.30;;;;;;5097024;28;20581;-80
2021/06/12 09:30:03;;;;;;;9.05;7.53;;;21.30;67.40;;;;;;5099387;28;20187;-81
2021/06/12 09:32:45;;;;;;;8.55;7.65;;;21.30;67.40;;;;;;5099877;28;20167;-81
2021/06/12 09:35:18;;;;;;;8.10;7.30;;;21.30;67.30;;;;;;5081353;28;20176;-80
2021/06/12 09:37:45;;;;;;;8.13;7.05;;;21.30;67.30;;;;;;5079892;28;20216;-81
2021/06/12 09:40:17;;;;;;;9.15;7.10;;;21.30;67.80;;;;;;5094977;28;20684;-81
2021/06/12 09:42:52;;;;;;;7.95;7.10;;;21.30;67.80;;;;;;5075160;28;20181;-78
2021/06/12 09:45:22;;;;;;;8.40;7.60;;;21.30;67.60;;;;;;5067206;28;20248;-80
2021/06/12 09:47:49;;;;;;;9.18;7.03;;;21.30;67.70;;;;;;5101834;28;20696;-78
2021/06/12 09:50:15;;;;;;;7.78;6.97;;;21.30;67.80;;;;;;5100789;28;20160;-82
2021/06/12 09:52:45;;;;;;;8.75;6.90;;;21.30;67.60;;;;;;5097278;28;20203;-80
2021/06/12 09:55:29;;;;;;;7.88;7.07;;;21.30;67.50;;;;;;5097243;28;20247;-83
2021/06/12 09:57:58;;;;;;;7.57;6.78;;;21.30;67.80;;;;;;5064079;28;20208;-83
2021/06/12 10:00:43;;;;;;;9.55;7.45;;;21.30;67.60;;;;;;5079072;28;20176;-80
2021/06/12 10:03:18;;;;;;;7.93;7.13;;;21.30;67.50;;;;;;5098120;28;20172;-82
2021/06/12 10:05:46;;;;;;;7.45;6.75;;;21.30;67.50;;;;;;5096722;27;20238;-81
2021/06/12 10:08:15;;;;;;;8.60;7.68;;;21.30;67.80;;;;;;5078709;28;20212;-83
2021/06/12 10:10:51;;;;;;;7.93;7.13;;;21.20;67.80;;;;;;5078569;28;20250;-80
2021/06/12 10:13:19;;;;;;;8.18;7.22;;;21.30;67.50;;;;;;5079761;28;20665;-84
2021/06/12 10:15:47;;;;;;;7.78;6.97;;;21.30;67.80;;;;;;5078023;28;20196;-80
2021/06/12 10:18:19;;;;;;;8.48;7.15;;;21.30;67.50;;;;;;5061064;28;20216;-81
2021/06/12 10:20:46;;;;;;;8.00;7.15;;;21.20;67.80;;;;;;5062688;28;20181;-84
2021/06/12 10:23:16;;;;;;;8.52;7.03;;;21.20;68.00;;;;;;5060372;28;20176;-84
2021/06/12 10:25:44;;;;;;;8.00;7.20;;;21.30;67.60;;;;;;5060612;28;20674;-82
2021/06/12 10:28:11;;;;;;;8.88;7.05;;;21.20;67.50;;;;;;5078090;28;20184;-83
2021/06/12 10:30:41;;;;;;;8.40;7.35;;;21.30;67.50;;;;;;5080002;28;20203;-83
2021/06/12 10:33:08;;;;;;;8.20;7.38;;;21.30;67.40;;;;;;5080209;28;20187;-79
2021/06/12 10:35:35;;;;;;;9.60;7.05;;;21.20;68.50;;;;;;5078056;28;20188;-80
2021/06/12 10:38:12;;;;;;;7.57;6.85;;;21.20;66.80;;;;;;5078889;28;20742;-81
2021/06/12 10:40:45;;;;;;;7.15;6.43;;;21.30;66.30;;;;;;5079007;28;20176;-82
2021/06/12 10:43:15;;;;;;;7.90;6.47;;;21.30;66.60;;;;;;5077884;28;20200;-81
2021/06/12 10:45:44;;;;;;;8.23;7.43;;;21.40;66.80;;;;;;5076555;28;20226;-79
2021/06/12 10:48:34;;;;;;;10.63;7.63;;;21.30;66.90;;;;;;5094452;27;20655;-80
2021/06/12 10:51:00;;;;;;;9.98;7.25;;;21.30;66.90;;;;;;5095659;28;20161;-82
2021/06/12 10:53:34;;;;;;;8.00;7.20;;;21.30;67.00;;;;;;5094193;28;20224;-79
2021/06/12 10:56:01;;;;;;;8.57;6.80;;;21.30;67.20;;;;;;5095731;28;20561;-82
2021/06/12 10:58:41;;;;;;;8.43;7.55;;;21.40;67.00;;;;;;5095907;28;20211;-81
2021/06/12 11:01:13;;;;;;;8.10;7.18;;;21.30;67.20;;;;;;5096045;28;20157;-79
2021/06/12 11:04:13;;;;;;;8.60;6.88;;;21.40;67.20;;;;;;5095861;28;20248;-80
2021/06/12 11:06:57;;;;;;;7.70;6.90;;;21.40;67.00;;;;;;5081479;28;20276;-79
2021/06/12 11:09:28;;;;;;;7.82;6.97;;;21.40;66.80;;;;;;5096995;28;20156;-79
2021/06/12 11:11:55;;;;;;;8.30;6.93;;;21.30;66.90;;;;;;5098724;28;20192;-79
2021/06/12 11:14:27;;;;;;;8.02;6.90;;;21.40;66.70;;;;;;5099243;28;20638;-78
2021/06/12 11:17:13;;;;;;;8.80;7.43;;;21.40;66.60;;;;;;5096729;28;20169;-81
2021/06/12 11:19:45;;;;;;;9.95;7.40;;;21.50;66.00;;;;;;5095356;28;20169;-82
2021/06/12 11:22:46;;;;;;;9.52;7.45;;;21.50;66.30;;;;;;5095859;28;20239;-77
2021/06/12 11:25:36;;;;;;;7.82;7.03;;;21.40;66.60;;;;;;5095652;28;20176;-80
2021/06/12 11:28:26;;;;;;;8.88;7.32;;;21.40;66.40;;;;;;5094632;28;20161;-82
2021/06/12 11:30:53;;;;;;;8.88;7.57;;;21.50;66.40;;;;;;5094716;28;20218;-85
2021/06/12 11:33:20;;;;;;;7.57;6.78;;;21.50;66.00;;;;;;5093898;28;20620;-80
2021/06/12 11:35:49;;;;;;;8.48;6.82;;;21.50;66.30;;;;;;5095093;28;20157;-81
2021/06/12 11:38:21;;;;;;;9.95;7.50;;;21.50;66.20;;;;;;5093233;28;20181;-82
2021/06/12 11:40:52;;;;;;;8.77;7.75;;;21.50;67.40;;;;;;5093532;28;20153;-81
2021/06/12 11:43:46;;;;;;;7.57;6.75;;;21.50;66.20;;;;;;5093804;28;20187;-81
2021/06/12 11:46:19;;;;;;;9.18;7.63;;;21.40;66.30;;;;;;5093369;28;20232;-80
2021/06/12 11:48:46;;;;;;;9.73;7.90;;;21.50;66.50;;;;;;5093330;28;20148;-83
2021/06/12 11:51:18;;;;;;;9.30;7.72;;;21.50;66.60;;;;;;5093379;28;20149;-80
2021/06/12 11:54:06;;;;;;;8.38;7.22;;;21.40;66.20;;;;;;5094027;28;20212;-82
2021/06/12 11:56:35;;;;;;;8.00;7.18;;;21.50;66.10;;;;;;5093484;28;20184;-82
2021/06/12 11:59:02;;;;;;;10.05;7.15;;;21.50;65.60;;;;;;5092998;28;20203;-80
2021/06/12 12:01:57;;;;;;;8.85;6.55;;;21.50;65.60;;;;;;5060173;28;20176;-81
2021/06/12 12:04:24;;;;;;;8.85;7.38;;;21.60;65.90;;;;;;5078485;28;20183;-80
2021/06/12 12:06:52;;;;;;;7.63;6.80;;;21.50;65.90;;;;;;5075832;28;20189;-80
2021/06/12 12:09:24;;;;;;;8.63;7.70;;;21.50;66.20;;;;;;5095562;28;20638;-83
2021/06/12 12:11:53;;;;;;;10.48;7.63;;;21.50;66.90;;;;;;5061334;28;20241;-86
2021/06/12 12:14:27;;;;;;;9.20;7.43;;;21.50;66.00;;;;;;5096191;28;20157;-82
2021/06/12 12:16:53;;;;;;;9.13;7.78;;;21.60;65.80;;;;;;5093333;28;20165;-82
2021/06/12 12:19:19;;;;;;;10.88;7.75;;;21.60;65.70;;;;;;5093613;28;20286;-82
2021/06/12 12:21:47;;;;;;;8.40;6.88;;;21.60;66.00;;;;;;5094367;28;20240;-83
2021/06/12 12:24:13;;;;;;;7.85;7.05;;;21.60;65.30;;;;;;5093846;28;20163;-81
2021/06/12 12:26:50;;;;;;;8.30;6.90;;;21.60;65.00;;;;;;5077224;28;20164;-82
2021/06/12 12:29:18;;;;;;;9.15;7.15;;;21.60;65.30;;;;;;5094504;28;20156;-83
2021/06/12 12:31:49;;;;;;;8.20;6.97;;;21.60;65.50;;;;;;5096156;28;20631;-85
2021/06/12 12:34:31;;;;;;;8.00;6.88;;;21.60;65.20;;;;;;5076582;28;20188;-80
2021/06/12 12:36:57;;;;;;;8.70;7.30;;;21.60;65.50;;;;;;5093685;28;20512;-83
2021/06/12 12:39:24;;;;;;;9.88;7.03;;;21.60;65.60;;;;;;5095114;28;20177;-80
2021/06/12 12:41:55;;;;;;;9.85;7.00;;;21.60;65.70;;;;;;5095505;28;20210;-84
2021/06/12 12:44:22;;;;;;;7.80;7.00;;;21.60;65.10;;;;;;5094624;28;20251;-82
2021/06/12 12:46:48;;;;;;;8.85;7.68;;;21.70;64.90;;;;;;5093752;28;20157;-79
2021/06/12 12:49:17;;;;;;;7.70;6.90;;;21.70;65.30;;;;;;5094276;28;20161;-82
2021/06/12 12:51:56;;;;;;;9.52;7.55;;;21.70;65.00;;;;;;5077389;28;20213;-82
2021/06/12 12:54:22;;;;;;;7.78;6.97;;;21.80;64.70;;;;;;5060948;28;20549;-80
2021/06/12 12:56:53;;;;;;;8.27;7.15;;;21.70;64.80;;;;;;5094017;28;20163;-79
2021/06/12 12:59:33;;;;;;;11.00;7.53;;;21.70;64.90;;;;;;5093500;28;20176;-81